^^
Grace C. Lehan Memorial Weather Station Historical Data
Daily Summary for July 13, 2022 Units:  Both    English   Metric
Daily Weekly Monthly Yearly
  High: Low: Average:
Temperature: 80.2 °F /  26.8 °C 66.6 °F /  19.2 °C 73.7 °F /  23.2 °C
Dew Point: 74 °F /  23.3 °C 58.3 °F /  14.6 °C 70 °F /  21.1 °C
Humidity: 96% 73% 89%
Wind Speed: 2.6mph /  4.2km/h - 0.1mph /  0.2km/h
Wind Gust: 11mph /  17.7km/h - -
Wind- - SW
Pressure: 29.78 in /  1008.4 hPa 29.63 in /  1003.3 hPa -
Precipitation: 0.43 in /  10.92 mm    
 
 
Tabular Data for July 13, 2022
Time Temperature Dew Point Pressure Wind Wind Speed Wind Gust Humidity Rainfall Rate (Hourly) solar
00:00 71 °F /  21.7 °C 68.6 °F /  20.3 °C 29.77in /  1008hPa Calm     92% 0.00in /  0mm 0 W/m2
00:09 70.9 °F /  21.6 °C 68.5 °F /  20.3 °C 29.78in /  1008.4hPa Calm     92% 0.00in /  0mm 0 W/m2
00:14 70.8 °F /  21.6 °C 68.4 °F /  20.2 °C 29.78in /  1008.4hPa Calm     92% 0.00in /  0mm 0 W/m2
00:19 70.8 °F /  21.6 °C 68.4 °F /  20.2 °C 29.78in /  1008.4hPa Calm     92% 0.00in /  0mm 0 W/m2
00:24 70.8 °F /  21.6 °C 68.6 °F /  20.3 °C 29.78in /  1008.4hPa Calm     92.8% 0.00in /  0mm 0 W/m2
00:29 70.8 °F /  21.6 °C 68.7 °F /  20.4 °C 29.77in /  1008hPa Calm     93% 0.00in /  0mm 0 W/m2
00:34 70.8 °F /  21.6 °C 68.7 °F /  20.4 °C 29.77in /  1008hPa Calm     93% 0.00in /  0mm 0 W/m2
00:39 70.8 °F /  21.6 °C 68.7 °F /  20.4 °C 29.77in /  1008hPa Calm     93% 0.00in /  0mm 0 W/m2
00:44 70.8 °F /  21.6 °C 68.7 °F /  20.4 °C 29.77in /  1008hPa Calm     93% 0.00in /  0mm 0 W/m2
00:49 70.8 °F /  21.6 °C 68.7 °F /  20.4 °C 29.76in /  1007.7hPa Calm     93% 0.00in /  0mm 0 W/m2
00:54 70.8 °F /  21.6 °C 68.7 °F /  20.4 °C 29.76in /  1007.7hPa Calm     93% 0.00in /  0mm 0 W/m2
00:59 70.8 °F /  21.6 °C 68.7 °F /  20.4 °C 29.76in /  1007.7hPa Calm     93% 0.00in /  0mm 0 W/m2
01:04 70.8 °F /  21.6 °C 68.7 °F /  20.4 °C 29.76in /  1007.7hPa Calm     93% 0.00in /  0mm 0 W/m2
01:09 70.8 °F /  21.6 °C 68.7 °F /  20.4 °C 29.76in /  1007.7hPa Calm     93% 0.00in /  0mm 0 W/m2
01:14 70.7 °F /  21.5 °C 68.6 °F /  20.3 °C 29.76in /  1007.7hPa Calm     93% 0.00in /  0mm 0 W/m2
01:19 70.7 °F /  21.5 °C 68.6 °F /  20.3 °C 29.76in /  1007.7hPa Calm     93% 0.00in /  0mm 0 W/m2
01:24 70.7 °F /  21.5 °C 68.6 °F /  20.3 °C 29.76in /  1007.7hPa Calm     93.1% 0.00in /  0mm 0 W/m2
01:29 70.7 °F /  21.5 °C 68.6 °F /  20.3 °C 29.76in /  1007.7hPa Calm     93.2% 0.00in /  0mm 0 W/m2
01:34 70.7 °F /  21.5 °C 68.6 °F /  20.3 °C 29.76in /  1007.7hPa Calm     93% 0.00in /  0mm 0 W/m2
01:39 70.7 °F /  21.5 °C 68.8 °F /  20.4 °C 29.77in /  1008hPa Calm     93.8% 0.00in /  0mm 0 W/m2
01:44 70.6 °F /  21.4 °C 68.8 °F /  20.4 °C 29.77in /  1008hPa Calm     94% 0.00in /  0mm 0 W/m2
01:49 70.7 °F /  21.5 °C 68.9 °F /  20.5 °C 29.76in /  1007.7hPa Calm     94% 0.00in /  0mm 0 W/m2
01:54 70.7 °F /  21.5 °C 68.9 °F /  20.5 °C 29.76in /  1007.7hPa Calm     94% 0.00in /  0mm 0 W/m2
01:59 70.7 °F /  21.5 °C 68.9 °F /  20.5 °C 29.76in /  1007.7hPa Calm     94% 0.00in /  0mm 0 W/m2
02:04 70.7 °F /  21.5 °C 68.9 °F /  20.5 °C 29.76in /  1007.7hPa Calm     94% 0.00in /  0mm 0 W/m2
02:09 70.7 °F /  21.5 °C 68.9 °F /  20.5 °C 29.76in /  1007.7hPa Calm     94% 0.00in /  0mm 0 W/m2
02:14 70.7 °F /  21.5 °C 68.9 °F /  20.5 °C 29.76in /  1007.7hPa Calm     94% 0.00in /  0mm 0 W/m2
02:19 70.7 °F /  21.5 °C 68.9 °F /  20.5 °C 29.76in /  1007.7hPa Calm     94% 0.00in /  0mm 0 W/m2
02:24 70.7 °F /  21.5 °C 68.9 °F /  20.5 °C 29.76in /  1007.7hPa Calm     94% 0.00in /  0mm 0 W/m2
02:29 70.7 °F /  21.5 °C 68.9 °F /  20.5 °C 29.76in /  1007.7hPa Calm     94% 0.00in /  0mm 0 W/m2
02:34 70.7 °F /  21.5 °C 68.9 °F /  20.5 °C 29.76in /  1007.7hPa Calm     94% 0.00in /  0mm 0 W/m2
02:39 70.7 °F /  21.5 °C 68.9 °F /  20.5 °C 29.76in /  1007.7hPa Calm     94% 0.00in /  0mm 0 W/m2
02:44 70.6 °F /  21.4 °C 68.8 °F /  20.4 °C 29.75in /  1007.3hPa Calm     94% 0.00in /  0mm 0 W/m2
02:49 70.6 °F /  21.4 °C 68.8 °F /  20.4 °C 29.75in /  1007.3hPa Calm     94% 0.00in /  0mm 0 W/m2
02:54 70.6 °F /  21.4 °C 68.8 °F /  20.4 °C 29.75in /  1007.3hPa Calm     94% 0.00in /  0mm 0 W/m2
02:59 70.5 °F /  21.4 °C 68.7 °F /  20.4 °C 29.75in /  1007.3hPa Calm     94% 0.00in /  0mm 0 W/m2
03:04 70.5 °F /  21.4 °C 68.7 °F /  20.4 °C 29.75in /  1007.3hPa Calm     94% 0.00in /  0mm 0 W/m2
03:09 70.4 °F /  21.3 °C 68.6 °F /  20.3 °C 29.75in /  1007.3hPa Calm     94% 0.00in /  0mm 0 W/m2
03:14 70.4 °F /  21.3 °C 68.6 °F /  20.3 °C 29.74in /  1007hPa Calm     94% 0.00in /  0mm 0 W/m2
03:19 70.4 °F /  21.3 °C 68.6 °F /  20.3 °C 29.74in /  1007hPa Calm     94% 0.00in /  0mm 0 W/m2
03:24 70.4 °F /  21.3 °C 68.6 °F /  20.3 °C 29.74in /  1007hPa Calm     94% 0.00in /  0mm 0 W/m2
03:29 70.4 °F /  21.3 °C 68.7 °F /  20.4 °C 29.74in /  1007hPa Calm     94.2% 0.00in /  0mm 0 W/m2
03:34 70.4 °F /  21.3 °C 68.8 °F /  20.4 °C 29.74in /  1007hPa Calm     94.7% 0.00in /  0mm 0 W/m2
03:39 70.4 °F /  21.3 °C 68.9 °F /  20.5 °C 29.73in /  1006.7hPa Calm     95% 0.00in /  0mm 0 W/m2
03:44 70.4 °F /  21.3 °C 68.9 °F /  20.5 °C 29.73in /  1006.7hPa Calm     95% 0.00in /  0mm 0 W/m2
03:49 70.3 °F /  21.3 °C 68.8 °F /  20.4 °C 29.74in /  1007hPa Calm     95% 0.00in /  0mm 0 W/m2
03:54 70.3 °F /  21.3 °C 68.8 °F /  20.4 °C 29.73in /  1006.7hPa Calm     95% 0.00in /  0mm 0 W/m2
03:59 70.3 °F /  21.3 °C 68.8 °F /  20.4 °C 29.73in /  1006.7hPa Calm     95% 0.00in /  0mm 0 W/m2
04:00 70.2 °F /  21.2 °C 68.7 °F /  20.4 °C 29.73in /  1006.7hPa Calm     95% 0.00in /  0mm 0 W/m2
04:09 70.2 °F /  21.2 °C 68.7 °F /  20.4 °C 29.73in /  1006.7hPa Calm     95% 0.00in /  0mm 0 W/m2
04:14 70.1 °F /  21.2 °C 68.4 °F /  20.2 °C 29.73in /  1006.7hPa Calm     94.4% 0.00in /  0mm 0 W/m2
04:19 70 °F /  21.1 °C 68.4 °F /  20.2 °C 29.73in /  1006.7hPa Calm     94.5% 0.00in /  0mm 0 W/m2
04:24 70 °F /  21.1 °C 68.5 °F /  20.3 °C 29.74in /  1007hPa Calm     95% 0.00in /  0mm 0 W/m2
04:29 70 °F /  21.1 °C 68.5 °F /  20.3 °C 29.74in /  1007hPa Calm     95% 0.00in /  0mm 0 W/m2
04:34 69.9 °F /  21.1 °C 68.4 °F /  20.2 °C 29.74in /  1007hPa Calm     95% 0.00in /  0mm 0 W/m2
04:39 69.9 °F /  21.1 °C 68.4 °F /  20.2 °C 29.74in /  1007hPa Calm     95% 0.00in /  0mm 0 W/m2
04:44 69.9 °F /  21.1 °C 68.4 °F /  20.2 °C 29.74in /  1007hPa Calm     95% 0.00in /  0mm 0 W/m2
04:49 69.9 °F /  21.1 °C 68.4 °F /  20.2 °C 29.74in /  1007hPa Calm     95% 0.00in /  0mm 0 W/m2
04:54 70 °F /  21.1 °C 68.5 °F /  20.3 °C 29.74in /  1007hPa Calm     95% 0.00in /  0mm 0 W/m2
04:59 70 °F /  21.1 °C 68.5 °F /  20.3 °C 29.74in /  1007hPa Calm     95% 0.00in /  0mm 0 W/m2
05:04 70 °F /  21.1 °C 68.5 °F /  20.3 °C 29.73in /  1006.7hPa Calm     95% 0.00in /  0mm 0 W/m2
05:09 70 °F /  21.1 °C 68.5 °F /  20.3 °C 29.74in /  1007hPa Calm     95% 0.01in /  0.25mm 0 W/m2
05:14 70 °F /  21.1 °C 68.5 °F /  20.3 °C 29.74in /  1007hPa Calm     95% 0.01in /  0.25mm 0 W/m2
05:19 70.1 °F /  21.2 °C 68.6 °F /  20.3 °C 29.73in /  1006.7hPa Calm     95% 0.02in /  0.51mm 0 W/m2
05:24 70.1 °F /  21.2 °C 68.6 °F /  20.3 °C 29.73in /  1006.7hPa Calm     95% 0.03in /  0.76mm 0 W/m2
05:29 70.1 °F /  21.2 °C 68.6 °F /  20.3 °C 29.73in /  1006.7hPa Calm     95% 0.04in /  1.02mm 0 W/m2
05:34 70.1 °F /  21.2 °C 68.6 °F /  20.3 °C 29.74in /  1007hPa Calm     95% 0.06in /  1.52mm 0 W/m2
05:39 70.1 °F /  21.2 °C 68.6 °F /  20.3 °C 29.73in /  1006.7hPa Calm     95% 0.07in /  1.78mm 0 W/m2
05:44 70.1 °F /  21.2 °C 68.6 °F /  20.3 °C 29.73in /  1006.7hPa Calm     95% 0.07in /  1.78mm 0 W/m2
05:49 70.1 °F /  21.2 °C 68.6 °F /  20.3 °C 29.73in /  1006.7hPa Calm     95% 0.07in /  1.78mm 0 W/m2
05:54 70.1 °F /  21.2 °C 68.6 °F /  20.3 °C 29.73in /  1006.7hPa Calm     95% 0.08in /  2.03mm 0 W/m2
05:59 70.1 °F /  21.2 °C 68.6 °F /  20.3 °C 29.73in /  1006.7hPa Calm     95% 0.08in /  2.03mm 0 W/m2
06:04 70.1 °F /  21.2 °C 68.6 °F /  20.3 °C 29.73in /  1006.7hPa Calm     95% 0.09in /  2.29mm 0 W/m2
06:09 70.1 °F /  21.2 °C 68.6 °F /  20.3 °C 29.73in /  1006.7hPa Calm     95% 0.11in /  2.79mm 0 W/m2
06:14 70.1 °F /  21.2 °C 68.6 °F /  20.3 °C 29.74in /  1007hPa Calm     95% 0.13in /  3.3mm 0 W/m2
06:19 70.1 °F /  21.2 °C 68.6 °F /  20.3 °C 29.74in /  1007hPa Calm     95% 0.15in /  3.81mm 0 W/m2
06:24 70.1 °F /  21.2 °C 68.6 °F /  20.3 °C 29.74in /  1007hPa Calm     95% 0.17in /  4.32mm 0 W/m2
06:29 70.1 °F /  21.2 °C 68.6 °F /  20.3 °C 29.74in /  1007hPa Calm     95% 0.19in /  4.83mm 0 W/m2
06:34 70.2 °F /  21.2 °C 68.7 °F /  20.4 °C 29.74in /  1007hPa Calm     95% 0.19in /  4.83mm 0 W/m2
06:39 70.2 °F /  21.2 °C 68.9 °F /  20.5 °C 29.73in /  1006.7hPa Calm     95.7% 0.18in /  4.57mm 0 W/m2
06:44 70.3 °F /  21.3 °C 69.1 °F /  20.6 °C 29.74in /  1007hPa Calm     96% 0.20in /  5.08mm 0 W/m2
06:49 70.3 °F /  21.3 °C 69.1 °F /  20.6 °C 29.75in /  1007.3hPa Calm     96% 0.22in /  5.59mm 0 W/m2
06:54 70.3 °F /  21.3 °C 69.1 °F /  20.6 °C 29.75in /  1007.3hPa Calm     96% 0.23in /  5.84mm 0 W/m2
06:59 70.3 °F /  21.3 °C 69.1 °F /  20.6 °C 29.74in /  1007hPa Calm     96% 0.25in /  6.35mm 0 W/m2
07:04 70.4 °F /  21.3 °C 69.2 °F /  20.7 °C 29.73in /  1006.7hPa Calm     96% 0.25in /  6.35mm 0 W/m2
07:09 70.4 °F /  21.3 °C 69.2 °F /  20.7 °C 29.73in /  1006.7hPa Calm   1mph /  1.6km/h 96% 0.24in /  6.1mm 0 W/m2
07:14 70.4 °F /  21.3 °C 69.2 °F /  20.7 °C 29.73in /  1006.7hPa Calm   1mph /  1.6km/h 96% 0.25in /  6.35mm 0 W/m2
07:19 70.4 °F /  21.3 °C 69.2 °F /  20.7 °C 29.73in /  1006.7hPa Calm   1mph /  1.6km/h 96% 0.28in /  7.11mm 0 W/m2
07:24 70.4 °F /  21.3 °C 69.2 °F /  20.7 °C 29.73in /  1006.7hPa Calm   1mph /  1.6km/h 96% 0.31in /  7.87mm 7 W/m2
07:29 70.3 °F /  21.3 °C 69.1 °F /  20.6 °C 29.73in /  1006.7hPa Calm   1mph /  1.6km/h 96% 0.33in /  8.38mm 12 W/m2
07:34 70.4 °F /  21.3 °C 69.2 °F /  20.7 °C 29.73in /  1006.7hPa Calm   1mph /  1.6km/h 96% 0.33in /  8.38mm 23 W/m2
07:39 70.4 °F /  21.3 °C 69.2 °F /  20.7 °C 29.73in /  1006.7hPa Calm     96% 0.24in /  6.1mm 28 W/m2
07:44 70.4 °F /  21.3 °C 69.2 °F /  20.7 °C 29.73in /  1006.7hPa Calm     96% 0.24in /  6.1mm 28 W/m2
07:49 70.4 °F /  21.3 °C 69.2 °F /  20.7 °C 29.73in /  1006.7hPa Calm     96% 0.24in /  6.1mm 35 W/m2
07:54 70.4 °F /  21.3 °C 69.2 °F /  20.7 °C 29.72in /  1006.3hPa Calm     96% 0.24in /  6.1mm 42 W/m2
07:59 70.4 °F /  21.3 °C 69.2 °F /  20.7 °C 29.72in /  1006.3hPa Calm     96% 0.24in /  6.1mm 49 W/m2
08:00 70.4 °F /  21.3 °C 69.2 °F /  20.7 °C 29.72in /  1006.3hPa Calm     96% 0.24in /  6.1mm 49 W/m2
08:09 70.5 °F /  21.4 °C 69.3 °F /  20.7 °C 29.73in /  1006.7hPa Calm     96% 0.24in /  6.1mm 51 W/m2
08:14 70.5 °F /  21.4 °C 69.3 °F /  20.7 °C 29.73in /  1006.7hPa Calm     96% 0.24in /  6.1mm 58 W/m2
08:19 70.5 °F /  21.4 °C 69.3 °F /  20.7 °C 29.73in /  1006.7hPa Calm     96% 0.24in /  6.1mm 58 W/m2
08:24 70.6 °F /  21.4 °C 69.4 °F /  20.8 °C 29.73in /  1006.7hPa Calm     96% 0.24in /  6.1mm 86 W/m2
08:29 70.8 °F /  21.6 °C 69.6 °F /  20.9 °C 29.73in /  1006.7hPa Calm     96% 0.24in /  6.1mm 86 W/m2
08:34 70.9 °F /  21.6 °C 69.8 °F /  21 °C 29.74in /  1007hPa Calm     96% 0.24in /  6.1mm 46 W/m2
08:39 71 °F /  21.7 °C 69.8 °F /  21 °C 29.74in /  1007hPa Calm     96% 0.01in /  0.25mm 54 W/m2
08:44 71 °F /  21.7 °C 69.8 °F /  21 °C 29.74in /  1007hPa Calm     96% 0.01in /  0.25mm 86 W/m2
08:49 71.1 °F /  21.7 °C 69.9 °F /  21.1 °C 29.74in /  1007hPa Calm     96% 0.01in /  0.25mm 109 W/m2
08:54 71.1 °F /  21.7 °C 69.9 °F /  21.1 °C 29.74in /  1007hPa Calm     96% 0.01in /  0.25mm 113 W/m2
08:59 71.2 °F /  21.8 °C 70 °F /  21.1 °C 29.75in /  1007.3hPa Calm     96% 0.01in /  0.25mm 118 W/m2
09:04 71.4 °F /  21.9 °C 70.2 °F /  21.2 °C 29.75in /  1007.3hPa Calm     96% 0.01in /  0.25mm 114 W/m2
09:09 71.5 °F /  21.9 °C 70.3 °F /  21.3 °C 29.75in /  1007.3hPa Calm     96% 0.00in /  0mm 65 W/m2
09:14 71.5 °F /  21.9 °C 70.3 °F /  21.3 °C 29.75in /  1007.3hPa Calm     96% 0.00in /  0mm 74 W/m2
09:19 71.6 °F /  22 °C 70.4 °F /  21.3 °C 29.75in /  1007.3hPa Calm     96% 0.00in /  0mm 81 W/m2
09:24 71.6 °F /  22 °C 70.4 °F /  21.3 °C 29.75in /  1007.3hPa Calm     96% 0.00in /  0mm 98 W/m2
09:29 71.6 °F /  22 °C 70.4 °F /  21.3 °C 29.75in /  1007.3hPa Calm     96% 0.00in /  0mm 128 W/m2
09:34 71.5 °F /  21.9 °C 70.3 °F /  21.3 °C 29.75in /  1007.3hPa Calm     96% 0.00in /  0mm 132 W/m2
09:39 71.6 °F /  22 °C 70.4 °F /  21.3 °C 29.75in /  1007.3hPa Calm     96% 0.00in /  0mm 163 W/m2
09:44 71.7 °F /  22.1 °C 70.5 °F /  21.4 °C 29.75in /  1007.3hPa Calm     96% 0.00in /  0mm 163 W/m2
09:49 71.9 °F /  22.2 °C 70.7 °F /  21.5 °C 29.75in /  1007.3hPa Calm     96% 0.00in /  0mm 167 W/m2
09:54 72.1 °F /  22.3 °C 70.9 °F /  21.6 °C 29.75in /  1007.3hPa Calm     96% 0.00in /  0mm 403 W/m2
09:59 72.2 °F /  22.3 °C 71 °F /  21.7 °C 29.75in /  1007.3hPa Calm     96% 0.00in /  0mm 292 W/m2
10:04 72.2 °F /  22.3 °C 71 °F /  21.7 °C 29.75in /  1007.3hPa Calm     96% 0.00in /  0mm 220 W/m2
10:09 72.1 °F /  22.3 °C 70.9 °F /  21.6 °C 29.75in /  1007.3hPa Calm     96% 0.00in /  0mm 255 W/m2
10:14 72.1 °F /  22.3 °C 70.9 °F /  21.6 °C 29.75in /  1007.3hPa Calm     96% 0.00in /  0mm 244 W/m2
10:19 72.3 °F /  22.4 °C 71.1 °F /  21.7 °C 29.75in /  1007.3hPa Calm   1mph /  1.6km/h 96% 0.00in /  0mm 343 W/m2
10:24 72.4 °F /  22.4 °C 71.2 °F /  21.8 °C 29.74in /  1007hPa Calm   1mph /  1.6km/h 96% 0.00in /  0mm 290 W/m2
10:29 72.6 °F /  22.6 °C 71.4 °F /  21.9 °C 29.74in /  1007hPa Calm   1mph /  1.6km/h 96% 0.00in /  0mm 322 W/m2
10:34 72.8 °F /  22.7 °C 71.6 °F /  22 °C 29.74in /  1007hPa Calm   1mph /  1.6km/h 96% 0.00in /  0mm 322 W/m2
10:39 72.8 °F /  22.7 °C 71.6 °F /  22 °C 29.74in /  1007hPa Calm     96% 0.00in /  0mm 330 W/m2
10:44 73 °F /  22.8 °C 71.8 °F /  22.1 °C 29.74in /  1007hPa Calm     96% 0.00in /  0mm 316 W/m2
10:49 73.1 °F /  22.8 °C 71.9 °F /  22.2 °C 29.74in /  1007hPa Calm     96% 0.00in /  0mm 316 W/m2
10:54 73.1 °F /  22.8 °C 71.9 °F /  22.2 °C 29.74in /  1007hPa Calm     96% 0.00in /  0mm 311 W/m2
10:59 73.3 °F /  22.9 °C 71.8 °F /  22.1 °C 29.74in /  1007hPa Calm     95.1% 0.00in /  0mm 367 W/m2
11:04 73.6 °F /  23.1 °C 72 °F /  22.2 °C 29.73in /  1006.7hPa Calm     95% 0.00in /  0mm 334 W/m2
11:09 73.8 °F /  23.2 °C 72.2 °F /  22.3 °C 29.73in /  1006.7hPa Calm     95% 0.00in /  0mm 334 W/m2
11:14 74 °F /  23.3 °C 72.1 °F /  22.3 °C 29.73in /  1006.7hPa Calm     94% 0.00in /  0mm 860 W/m2
11:19 74.6 °F /  23.7 °C 72.7 °F /  22.6 °C 29.73in /  1006.7hPa Calm   1mph /  1.6km/h 93.9% 0.00in /  0mm 902 W/m2
11:24 74.9 °F /  23.8 °C 72.2 °F /  22.3 °C 29.73in /  1006.7hPa Calm   1mph /  1.6km/h 91.4% 0.00in /  0mm 396 W/m2
11:29 75.4 °F /  24.1 °C 72.6 °F /  22.6 °C 29.73in /  1006.7hPa Calm   1mph /  1.6km/h 90.9% 0.00in /  0mm 404 W/m2
11:34 75.8 °F /  24.3 °C 72.6 °F /  22.6 °C 29.73in /  1006.7hPa Calm   1mph /  1.6km/h 89.7% 0.00in /  0mm 360 W/m2
11:39 76 °F /  24.4 °C 71.9 °F /  22.2 °C 29.73in /  1006.7hPa Calm   2mph /  3.2km/h 87.1% 0.00in /  0mm 364 W/m2
11:44 76.2 °F /  24.6 °C 71.9 °F /  22.2 °C 29.73in /  1006.7hPa NW 0.2mph /  0.3km/h 4mph /  6.4km/h 86.5% 0.00in /  0mm 425 W/m2
11:49 76.3 °F /  24.6 °C 71.9 °F /  22.2 °C 29.72in /  1006.3hPa Calm   4mph /  6.4km/h 86.4% 0.00in /  0mm 424 W/m2
11:54 76.7 °F /  24.8 °C 72.5 °F /  22.5 °C 29.72in /  1006.3hPa Calm   4mph /  6.4km/h 87.1% 0.00in /  0mm 464 W/m2
11:59 76.9 °F /  24.9 °C 72.1 °F /  22.3 °C 29.72in /  1006.3hPa Calm   4mph /  6.4km/h 85.1% 0.00in /  0mm 378 W/m2
12:00 77 °F /  25 °C 71.8 °F /  22.1 °C 29.72in /  1006.3hPa Calm   4mph /  6.4km/h 84% 0.00in /  0mm 378 W/m2
12:09 77.2 °F /  25.1 °C 72 °F /  22.2 °C 29.72in /  1006.3hPa Calm     84% 0.00in /  0mm 413 W/m2
12:14 77.5 °F /  25.3 °C 72.3 °F /  22.4 °C 29.71in /  1006hPa NW 0.2mph /  0.3km/h 3mph /  4.8km/h 84% 0.00in /  0mm 385 W/m2
12:19 77.7 °F /  25.4 °C 72 °F /  22.2 °C 29.71in /  1006hPa Calm   3mph /  4.8km/h 82.8% 0.00in /  0mm 360 W/m2
12:24 77.8 °F /  25.4 °C 72.4 °F /  22.4 °C 29.71in /  1006hPa Calm   3mph /  4.8km/h 83.3% 0.00in /  0mm 257 W/m2
12:29 77.9 °F /  25.5 °C 72.3 °F /  22.4 °C 29.71in /  1006hPa Calm   3mph /  4.8km/h 82.7% 0.00in /  0mm 153 W/m2
12:34 77.9 °F /  25.5 °C 71.9 °F /  22.2 °C 29.71in /  1006hPa NW 0.1mph /  0.2km/h 3mph /  4.8km/h 82% 0.00in /  0mm 158 W/m2
12:39 77.8 °F /  25.4 °C 71.8 °F /  22.1 °C 29.71in /  1006hPa NW 0.3mph /  0.5km/h 4mph /  6.4km/h 82% 0.00in /  0mm 193 W/m2
12:44 77.6 °F /  25.3 °C 71.7 °F /  22.1 °C 29.70in /  1005.6hPa Calm   4mph /  6.4km/h 82.1% 0.00in /  0mm 209 W/m2
12:49 77.6 °F /  25.3 °C 72 °F /  22.2 °C 29.70in /  1005.6hPa Calm   4mph /  6.4km/h 83% 0.00in /  0mm 311 W/m2
12:54 77.7 °F /  25.4 °C 72.1 °F /  22.3 °C 29.70in /  1005.6hPa Calm   4mph /  6.4km/h 83% 0.00in /  0mm 322 W/m2
12:59 77.8 °F /  25.4 °C 72.3 °F /  22.4 °C 29.70in /  1005.6hPa Calm   4mph /  6.4km/h 83% 0.00in /  0mm 302 W/m2
13:04 77.9 °F /  25.5 °C 72.3 °F /  22.4 °C 29.71in /  1006hPa NNW 0.3mph /  0.5km/h 4mph /  6.4km/h 82.9% 0.00in /  0mm 179 W/m2
13:09 77.9 °F /  25.5 °C 72.3 °F /  22.4 °C 29.70in /  1005.6hPa North 0.1mph /  0.2km/h 3mph /  4.8km/h 82.8% 0.00in /  0mm 183 W/m2
13:14 77.8 °F /  25.4 °C 72.3 °F /  22.4 °C 29.70in /  1005.6hPa Calm   3mph /  4.8km/h 83% 0.00in /  0mm 185 W/m2
13:19 77.8 °F /  25.4 °C 72.4 °F /  22.4 °C 29.70in /  1005.6hPa Calm   3mph /  4.8km/h 83.5% 0.00in /  0mm 160 W/m2
13:24 77.8 °F /  25.4 °C 72.2 °F /  22.3 °C 29.70in /  1005.6hPa Calm   3mph /  4.8km/h 83% 0.00in /  0mm 155 W/m2
13:29 77.8 °F /  25.4 °C 72.5 °F /  22.5 °C 29.70in /  1005.6hPa Calm   3mph /  4.8km/h 83.7% 0.00in /  0mm 292 W/m2
13:34 77.8 °F /  25.4 °C 72.3 °F /  22.4 °C 29.70in /  1005.6hPa Calm   3mph /  4.8km/h 83.3% 0.00in /  0mm 292 W/m2
13:39 77.9 °F /  25.5 °C 72.3 °F /  22.4 °C 29.70in /  1005.6hPa NNE 0.1mph /  0.2km/h 2mph /  3.2km/h 83% 0.00in /  0mm 223 W/m2
13:44 77.9 °F /  25.5 °C 72.3 °F /  22.4 °C 29.70in /  1005.6hPa Calm   2mph /  3.2km/h 83% 0.00in /  0mm 281 W/m2
13:49 78 °F /  25.6 °C 72.4 °F /  22.4 °C 29.69in /  1005.3hPa Calm   2mph /  3.2km/h 83% 0.00in /  0mm 320 W/m2
13:54 78.1 °F /  25.6 °C 72.5 °F /  22.5 °C 29.69in /  1005.3hPa Calm   2mph /  3.2km/h 83% 0.00in /  0mm 325 W/m2
13:59 78.4 °F /  25.8 °C 73 °F /  22.8 °C 29.69in /  1005.3hPa Calm   2mph /  3.2km/h 83.5% 0.00in /  0mm 313 W/m2
14:04 78.6 °F /  25.9 °C 73 °F /  22.8 °C 29.69in /  1005.3hPa Calm   2mph /  3.2km/h 83% 0.00in /  0mm 234 W/m2
14:09 78.6 °F /  25.9 °C 72.7 °F /  22.6 °C 29.69in /  1005.3hPa NE 0.1mph /  0.2km/h 1mph /  1.6km/h 82% 0.00in /  0mm 200 W/m2
14:14 78.6 °F /  25.9 °C 72.6 °F /  22.6 °C 29.69in /  1005.3hPa ENE 0.1mph /  0.2km/h 3mph /  4.8km/h 82% 0.00in /  0mm 186 W/m2
14:19 78.6 °F /  25.9 °C 72.7 °F /  22.6 °C 29.69in /  1005.3hPa Calm   3mph /  4.8km/h 82% 0.00in /  0mm 165 W/m2
14:24 78.6 °F /  25.9 °C 72.7 °F /  22.6 °C 29.68in /  1005hPa Calm   3mph /  4.8km/h 82% 0.00in /  0mm 104 W/m2
14:29 78.5 °F /  25.8 °C 72.6 °F /  22.6 °C 29.68in /  1005hPa Calm   3mph /  4.8km/h 82% 0.00in /  0mm 244 W/m2
14:34 78.5 °F /  25.8 °C 72.8 °F /  22.7 °C 29.68in /  1005hPa Calm   3mph /  4.8km/h 82.6% 0.00in /  0mm 309 W/m2
14:39 78.7 °F /  25.9 °C 73.1 °F /  22.8 °C 29.67in /  1004.6hPa ENE 0.3mph /  0.5km/h 4mph /  6.4km/h 83% 0.00in /  0mm 302 W/m2
14:44 78.9 °F /  26.1 °C 73.1 °F /  22.8 °C 29.67in /  1004.6hPa Calm   4mph /  6.4km/h 82.5% 0.00in /  0mm 360 W/m2
14:49 79.1 °F /  26.2 °C 73.1 °F /  22.8 °C 29.67in /  1004.6hPa ENE 0.2mph /  0.3km/h 4mph /  6.4km/h 82% 0.00in /  0mm 236 W/m2
14:54 79.2 °F /  26.2 °C 73.2 °F /  22.9 °C 29.67in /  1004.6hPa Calm   4mph /  6.4km/h 82% 0.00in /  0mm 475 W/m2
14:59 79.3 °F /  26.3 °C 73.3 °F /  22.9 °C 29.67in /  1004.6hPa East 0.1mph /  0.2km/h 4mph /  6.4km/h 82% 0.00in /  0mm 475 W/m2
15:04 79.5 °F /  26.4 °C 73.5 °F /  23.1 °C 29.67in /  1004.6hPa South 0.2mph /  0.3km/h 4mph /  6.4km/h 82% 0.00in /  0mm 744 W/m2
15:09 79.8 °F /  26.6 °C 73.6 °F /  23.1 °C 29.66in /  1004.3hPa Calm   4mph /  6.4km/h 81.3% 0.00in /  0mm 666 W/m2
15:14 80.1 °F /  26.7 °C 73.7 °F /  23.2 °C 29.66in /  1004.3hPa Calm   4mph /  6.4km/h 81% 0.00in /  0mm 174 W/m2
15:19 80.1 °F /  26.7 °C 73.4 °F /  23 °C 29.66in /  1004.3hPa South 0.1mph /  0.2km/h 4mph /  6.4km/h 80% 0.00in /  0mm 162 W/m2
15:24 80.1 °F /  26.7 °C 73.6 °F /  23.1 °C 29.66in /  1004.3hPa Calm   4mph /  6.4km/h 80.6% 0.00in /  0mm 163 W/m2
15:29 79.9 °F /  26.6 °C 73.2 °F /  22.9 °C 29.66in /  1004.3hPa SE 0.2mph /  0.3km/h 4mph /  6.4km/h 80.1% 0.00in /  0mm 260 W/m2
15:34 80 °F /  26.7 °C 73.7 °F /  23.2 °C 29.66in /  1004.3hPa SE 0.1mph /  0.2km/h 5mph /  8km/h 81.2% 0.00in /  0mm 216 W/m2
15:39 80 °F /  26.7 °C 73.6 °F /  23.1 °C 29.66in /  1004.3hPa SE 0.2mph /  0.3km/h 5mph /  8km/h 80.8% 0.00in /  0mm 102 W/m2
15:44 79.8 °F /  26.6 °C 73.3 °F /  22.9 °C 29.66in /  1004.3hPa SE 0.1mph /  0.2km/h 5mph /  8km/h 80.5% 0.00in /  0mm 733 W/m2
15:49 80 °F /  26.7 °C 73.9 °F /  23.3 °C 29.66in /  1004.3hPa SW 0.1mph /  0.2km/h 5mph /  8km/h 81.7% 0.00in /  0mm 592 W/m2
15:54 80.2 °F /  26.8 °C 73.8 °F /  23.2 °C 29.65in /  1003.9hPa SE 0.3mph /  0.5km/h 5mph /  8km/h 80.9% 0.00in /  0mm 135 W/m2
15:59 80.1 °F /  26.7 °C 73.4 °F /  23 °C 29.65in /  1003.9hPa South 0.1mph /  0.2km/h 5mph /  8km/h 80.3% 0.00in /  0mm 123 W/m2
16:09 79.8 °F /  26.6 °C 73.4 °F /  23 °C 29.65in /  1003.9hPa ESE 0.5mph /  0.8km/h 5mph /  8km/h 81% 0.00in /  0mm 128 W/m2
16:14 79.6 °F /  26.4 °C 73.4 °F /  23 °C 29.65in /  1003.9hPa Calm   5mph /  8km/h 81.3% 0.00in /  0mm 176 W/m2
16:19 79.6 °F /  26.4 °C 73.6 °F /  23.1 °C 29.65in /  1003.9hPa Calm   5mph /  8km/h 82% 0.00in /  0mm 171 W/m2
16:24 79.6 °F /  26.4 °C 73.6 °F /  23.1 °C 29.65in /  1003.9hPa Calm   5mph /  8km/h 82% 0.00in /  0mm 162 W/m2
16:29 79.7 °F /  26.5 °C 73.8 °F /  23.2 °C 29.64in /  1003.6hPa Calm   5mph /  8km/h 82.2% 0.00in /  0mm 171 W/m2
16:34 79.8 °F /  26.6 °C 73.8 °F /  23.2 °C 29.64in /  1003.6hPa ESE 0.6mph /  1km/h 5mph /  8km/h 82% 0.00in /  0mm 200 W/m2
16:39 80 °F /  26.7 °C 74 °F /  23.3 °C 29.64in /  1003.6hPa ESE 0.2mph /  0.3km/h 5mph /  8km/h 82.2% 0.00in /  0mm 118 W/m2
16:44 80 °F /  26.7 °C 74 °F /  23.3 °C 29.64in /  1003.6hPa SE 0.1mph /  0.2km/h 5mph /  8km/h 82% 0.00in /  0mm 104 W/m2
16:49 79.9 °F /  26.6 °C 73.9 °F /  23.3 °C 29.64in /  1003.6hPa SE 0.5mph /  0.8km/h 5mph /  8km/h 82% 0.00in /  0mm 90 W/m2
16:54 79.7 °F /  26.5 °C 73.8 °F /  23.2 °C 29.64in /  1003.6hPa SE 1.2mph /  1.9km/h 6mph /  9.7km/h 82% 0.00in /  0mm 102 W/m2
16:59 79.6 °F /  26.4 °C 73.6 °F /  23.1 °C 29.63in /  1003.3hPa ESE 0.1mph /  0.2km/h 6mph /  9.7km/h 82% 0.00in /  0mm 95 W/m2
17:04 79.5 °F /  26.4 °C 73.6 °F /  23.1 °C 29.63in /  1003.3hPa South 0.1mph /  0.2km/h 6mph /  9.7km/h 82.3% 0.00in /  0mm 139 W/m2
17:09 79.5 °F /  26.4 °C 73.9 °F /  23.3 °C 29.63in /  1003.3hPa WSW 0.2mph /  0.3km/h 4mph /  6.4km/h 83% 0.00in /  0mm 141 W/m2
17:14 79.5 °F /  26.4 °C 73.9 °F /  23.3 °C 29.63in /  1003.3hPa Calm   4mph /  6.4km/h 83% 0.00in /  0mm 149 W/m2
17:19 79.5 °F /  26.4 °C 73.9 °F /  23.3 °C 29.63in /  1003.3hPa Calm   4mph /  6.4km/h 83% 0.00in /  0mm 90 W/m2
17:24 79.5 °F /  26.4 °C 73.9 °F /  23.3 °C 29.64in /  1003.6hPa Calm   4mph /  6.4km/h 83% 0.00in /  0mm 79 W/m2
17:29 79.5 °F /  26.4 °C 73.9 °F /  23.3 °C 29.64in /  1003.6hPa Calm   4mph /  6.4km/h 83% 0.00in /  0mm 77 W/m2
17:34 79.5 °F /  26.4 °C 73.9 °F /  23.3 °C 29.64in /  1003.6hPa Calm   4mph /  6.4km/h 83% 0.00in /  0mm 104 W/m2
17:39 79.4 °F /  26.3 °C 73.8 °F /  23.2 °C 29.64in /  1003.6hPa Calm     83% 0.00in /  0mm 109 W/m2
17:44 79.4 °F /  26.3 °C 73.8 °F /  23.2 °C 29.64in /  1003.6hPa Calm     83% 0.00in /  0mm 95 W/m2
17:49 79.3 °F /  26.3 °C 73.7 °F /  23.2 °C 29.64in /  1003.6hPa Calm     83% 0.00in /  0mm 93 W/m2
17:54 79.3 °F /  26.3 °C 73.6 °F /  23.1 °C 29.64in /  1003.6hPa Calm     82.8% 0.00in /  0mm 93 W/m2
17:59 79.2 °F /  26.2 °C 73.2 °F /  22.9 °C 29.64in /  1003.6hPa SW 0.2mph /  0.3km/h 3mph /  4.8km/h 82% 0.00in /  0mm 98 W/m2
18:04 79.2 °F /  26.2 °C 72.9 °F /  22.7 °C 29.64in /  1003.6hPa Calm   3mph /  4.8km/h 81% 0.00in /  0mm 62 W/m2
18:09 79.1 °F /  26.2 °C 72.8 °F /  22.7 °C 29.64in /  1003.6hPa South 0.1mph /  0.2km/h 3mph /  4.8km/h 81% 0.00in /  0mm 39 W/m2
18:14 79 °F /  26.1 °C 72.7 °F /  22.6 °C 29.64in /  1003.6hPa South 0.1mph /  0.2km/h 3mph /  4.8km/h 81% 0.00in /  0mm 35 W/m2
18:19 78.9 °F /  26.1 °C 72.6 °F /  22.6 °C 29.64in /  1003.6hPa Calm   3mph /  4.8km/h 81% 0.00in /  0mm 25 W/m2
18:24 78.8 °F /  26 °C 72.4 °F /  22.4 °C 29.64in /  1003.6hPa Calm   3mph /  4.8km/h 81% 0.00in /  0mm 23 W/m2
18:29 78.6 °F /  25.9 °C 72.3 °F /  22.4 °C 29.64in /  1003.6hPa Calm   3mph /  4.8km/h 81% 0.00in /  0mm 9 W/m2
18:34 78.4 °F /  25.8 °C 72.2 °F /  22.3 °C 29.65in /  1003.9hPa Calm   3mph /  4.8km/h 81.2% 0.00in /  0mm 7 W/m2
18:39 78.3 °F /  25.7 °C 72.4 °F /  22.4 °C 29.65in /  1003.9hPa Calm     82% 0.00in /  0mm 5 W/m2
18:44 78.1 °F /  25.6 °C 72.2 °F /  22.3 °C 29.65in /  1003.9hPa Calm     82% 0.00in /  0mm 0 W/m2
18:49 78 °F /  25.6 °C 72.1 °F /  22.3 °C 29.65in /  1003.9hPa Calm   1mph /  1.6km/h 82.1% 0.00in /  0mm 0 W/m2
18:54 77.9 °F /  25.5 °C 72.3 °F /  22.4 °C 29.65in /  1003.9hPa Calm   1mph /  1.6km/h 83% 0.00in /  0mm 0 W/m2
18:59 77.8 °F /  25.4 °C 72.4 °F /  22.4 °C 29.65in /  1003.9hPa Calm   1mph /  1.6km/h 83.6% 0.00in /  0mm 0 W/m2
19:04 77.7 °F /  25.4 °C 72.5 °F /  22.5 °C 29.65in /  1003.9hPa Calm   1mph /  1.6km/h 84% 0.00in /  0mm 0 W/m2
19:09 77.6 °F /  25.3 °C 72.4 °F /  22.4 °C 29.65in /  1003.9hPa Calm     84.2% 0.00in /  0mm 0 W/m2
19:14 77.4 °F /  25.2 °C 72.6 °F /  22.6 °C 29.65in /  1003.9hPa Calm     85% 0.00in /  0mm 0 W/m2
19:19 77.3 °F /  25.2 °C 72.4 °F /  22.4 °C 29.65in /  1003.9hPa Calm   3mph /  4.8km/h 85% 0.00in /  0mm 0 W/m2
19:24 77.1 °F /  25.1 °C 72.3 °F /  22.4 °C 29.65in /  1003.9hPa Calm   3mph /  4.8km/h 85% 0.00in /  0mm 0 W/m2
19:29 77 °F /  25 °C 72.5 °F /  22.5 °C 29.66in /  1004.3hPa South 0.1mph /  0.2km/h 3mph /  4.8km/h 85.9% 0.00in /  0mm 0 W/m2
19:34 76.9 °F /  24.9 °C 72.4 °F /  22.4 °C 29.66in /  1004.3hPa Calm   3mph /  4.8km/h 86% 0.00in /  0mm 0 W/m2
19:39 76.8 °F /  24.9 °C 72.3 °F /  22.4 °C 29.66in /  1004.3hPa Calm     86% 0.00in /  0mm 0 W/m2
19:44 76.7 °F /  24.8 °C 72.2 °F /  22.3 °C 29.66in /  1004.3hPa Calm     86% 0.00in /  0mm 0 W/m2
19:49 76.5 °F /  24.7 °C 72.1 °F /  22.3 °C 29.67in /  1004.6hPa West 1.7mph /  2.7km/h 9mph /  14.5km/h 86.3% 0.00in /  0mm 0 W/m2
19:54 76.2 °F /  24.6 °C 71.5 °F /  21.9 °C 29.67in /  1004.6hPa West 1.6mph /  2.6km/h 9mph /  14.5km/h 85.5% 0.00in /  0mm 0 W/m2
19:59 75.8 °F /  24.3 °C 71 °F /  21.7 °C 29.67in /  1004.6hPa West 0.3mph /  0.5km/h 9mph /  14.5km/h 85% 0.00in /  0mm 0 W/m2
20:00 75.7 °F /  24.3 °C 70.9 °F /  21.6 °C 29.67in /  1004.6hPa Calm   9mph /  14.5km/h 85% 0.00in /  0mm 0 W/m2
20:09 75.5 °F /  24.2 °C 70.7 °F /  21.5 °C 29.68in /  1005hPa West 0.6mph /  1km/h 2mph /  3.2km/h 85% 0.00in /  0mm 0 W/m2
20:14 75.4 °F /  24.1 °C 70.5 °F /  21.4 °C 29.68in /  1005hPa West 1.2mph /  1.9km/h 5mph /  8km/h 85% 0.00in /  0mm 0 W/m2
20:19 75.2 °F /  24 °C 70.3 °F /  21.3 °C 29.68in /  1005hPa WNW 1.2mph /  1.9km/h 7mph /  11.3km/h 84.8% 0.00in /  0mm 0 W/m2
20:24 75 °F /  23.9 °C 69.8 °F /  21 °C 29.68in /  1005hPa WNW 1.1mph /  1.8km/h 7mph /  11.3km/h 84% 0.00in /  0mm 0 W/m2
20:29 74.7 °F /  23.7 °C 69.5 °F /  20.8 °C 29.68in /  1005hPa WNW 1.2mph /  1.9km/h 7mph /  11.3km/h 84% 0.00in /  0mm 0 W/m2
20:34 74.5 °F /  23.6 °C 69.3 °F /  20.7 °C 29.70in /  1005.6hPa Calm   7mph /  11.3km/h 84% 0.00in /  0mm 0 W/m2
20:39 74.3 °F /  23.5 °C 69.1 °F /  20.6 °C 29.70in /  1005.6hPa West 0.7mph /  1.1km/h 5mph /  8km/h 84% 0.00in /  0mm 0 W/m2
20:44 74.1 °F /  23.4 °C 68.9 °F /  20.5 °C 29.70in /  1005.6hPa Calm   5mph /  8km/h 84% 0.00in /  0mm 0 W/m2
20:49 73.9 °F /  23.3 °C 68.8 °F /  20.4 °C 29.71in /  1006hPa Calm   5mph /  8km/h 84% 0.00in /  0mm 0 W/m2
20:54 73.7 °F /  23.2 °C 68.7 °F /  20.4 °C 29.71in /  1006hPa Calm   5mph /  8km/h 84.2% 0.00in /  0mm 0 W/m2
20:59 73.6 °F /  23.1 °C 68.8 °F /  20.4 °C 29.71in /  1006hPa Calm   5mph /  8km/h 85% 0.00in /  0mm 0 W/m2
21:04 73.4 °F /  23 °C 68.7 °F /  20.4 °C 29.71in /  1006hPa Calm   5mph /  8km/h 85% 0.00in /  0mm 0 W/m2
21:09 73.3 °F /  22.9 °C 68.5 °F /  20.3 °C 29.71in /  1006hPa Calm     85% 0.00in /  0mm 0 W/m2
21:14 73.1 °F /  22.8 °C 68.4 °F /  20.2 °C 29.71in /  1006hPa Calm     85.2% 0.00in /  0mm 0 W/m2
21:19 73 °F /  22.8 °C 68.4 °F /  20.2 °C 29.71in /  1006hPa Calm     85.5% 0.00in /  0mm 0 W/m2
21:24 72.9 °F /  22.7 °C 68.4 °F /  20.2 °C 29.71in /  1006hPa Calm     86% 0.00in /  0mm 0 W/m2
21:29 72.7 °F /  22.6 °C 68.3 °F /  20.2 °C 29.72in /  1006.3hPa Calm     86% 0.00in /  0mm 0 W/m2
21:34 72.6 °F /  22.6 °C 68.3 °F /  20.2 °C 29.72in /  1006.3hPa Calm     86.3% 0.00in /  0mm 0 W/m2
21:39 72.4 °F /  22.4 °C 68.3 °F /  20.2 °C 29.72in /  1006.3hPa Calm     87% 0.00in /  0mm 0 W/m2
21:44 72.3 °F /  22.4 °C 68.2 °F /  20.1 °C 29.72in /  1006.3hPa Calm     87% 0.00in /  0mm 0 W/m2
21:49 72.1 °F /  22.3 °C 68 °F /  20 °C 29.72in /  1006.3hPa Calm     87% 0.00in /  0mm 0 W/m2
21:54 71.9 °F /  22.2 °C 67.8 °F /  19.9 °C 29.72in /  1006.3hPa Calm     87% 0.00in /  0mm 0 W/m2
21:59 71.7 °F /  22.1 °C 67.7 °F /  19.8 °C 29.72in /  1006.3hPa Calm     87% 0.00in /  0mm 0 W/m2
22:04 71.6 °F /  22 °C 67.7 °F /  19.8 °C 29.72in /  1006.3hPa Calm   1mph /  1.6km/h 87.7% 0.00in /  0mm 0 W/m2
22:09 71.5 °F /  21.9 °C 67.7 °F /  19.8 °C 29.72in /  1006.3hPa WNW 0.2mph /  0.3km/h 5mph /  8km/h 88% 0.00in /  0mm 0 W/m2
22:14 71.3 °F /  21.8 °C 67.6 °F /  19.8 °C 29.72in /  1006.3hPa WNW 0.1mph /  0.2km/h 5mph /  8km/h 88% 0.00in /  0mm 0 W/m2
22:19 71.2 °F /  21.8 °C 67.4 °F /  19.7 °C 29.72in /  1006.3hPa NW 1.5mph /  2.4km/h 6mph /  9.7km/h 87.9% 0.00in /  0mm 0 W/m2
22:24 70.9 °F /  21.6 °C 66.6 °F /  19.2 °C 29.72in /  1006.3hPa NW 2mph /  3.2km/h 10mph /  16.1km/h 86.4% 0.00in /  0mm 0 W/m2
22:29 70.6 °F /  21.4 °C 66 °F /  18.9 °C 29.72in /  1006.3hPa NW 0.7mph /  1.1km/h 10mph /  16.1km/h 85.3% 0.00in /  0mm 0 W/m2
22:34 70.4 °F /  21.3 °C 65.4 °F /  18.6 °C 29.72in /  1006.3hPa WNW 2.1mph /  3.4km/h 10mph /  16.1km/h 84.4% 0.00in /  0mm 0 W/m2
22:39 70.1 °F /  21.2 °C 64.4 °F /  18 °C 29.72in /  1006.3hPa West 2.6mph /  4.2km/h 11mph /  17.7km/h 82.1% 0.00in /  0mm 0 W/m2
22:44 69.9 °F /  21.1 °C 63.8 °F /  17.7 °C 29.73in /  1006.7hPa Calm   11mph /  17.7km/h 81% 0.00in /  0mm 0 W/m2
22:49 69.9 °F /  21.1 °C 63.8 °F /  17.7 °C 29.73in /  1006.7hPa West 2.1mph /  3.4km/h 11mph /  17.7km/h 81% 0.00in /  0mm 0 W/m2
22:54 69.7 °F /  20.9 °C 63.3 °F /  17.4 °C 29.73in /  1006.7hPa WNW 0.6mph /  1km/h 11mph /  17.7km/h 80.1% 0.00in /  0mm 0 W/m2
22:59 69.5 °F /  20.8 °C 62.9 °F /  17.2 °C 29.73in /  1006.7hPa West 0.3mph /  0.5km/h 11mph /  17.7km/h 79.4% 0.00in /  0mm 0 W/m2
23:04 69.3 °F /  20.7 °C 62.5 °F /  16.9 °C 29.74in /  1007hPa West 0.4mph /  0.6km/h 11mph /  17.7km/h 79% 0.00in /  0mm 0 W/m2
23:09 69 °F /  20.6 °C 61.5 °F /  16.4 °C 29.74in /  1007hPa NW 0.8mph /  1.3km/h 6mph /  9.7km/h 77% 0.00in /  0mm 0 W/m2
23:14 68.7 °F /  20.4 °C 60.3 °F /  15.7 °C 29.74in /  1007hPa WNW 1.6mph /  2.6km/h 6mph /  9.7km/h 74.5% 0.00in /  0mm 0 W/m2
23:19 68.5 °F /  20.3 °C 59.6 °F /  15.3 °C 29.74in /  1007hPa WNW 1.6mph /  2.6km/h 6mph /  9.7km/h 73.4% 0.00in /  0mm 0 W/m2
23:24 68.3 °F /  20.2 °C 59.3 °F /  15.2 °C 29.74in /  1007hPa WNW 0.4mph /  0.6km/h 6mph /  9.7km/h 73% 0.00in /  0mm 0 W/m2
23:29 68.1 °F /  20.1 °C 59.1 °F /  15.1 °C 29.74in /  1007hPa WNW 0.2mph /  0.3km/h 6mph /  9.7km/h 73% 0.00in /  0mm 0 W/m2
23:34 67.9 °F /  19.9 °C 59.1 °F /  15.1 °C 29.74in /  1007hPa WNW 1.3mph /  2.1km/h 9mph /  14.5km/h 73.4% 0.00in /  0mm 0 W/m2
23:39 67.7 °F /  19.8 °C 58.8 °F /  14.9 °C 29.74in /  1007hPa WNW 0.8mph /  1.3km/h 9mph /  14.5km/h 73.3% 0.00in /  0mm 0 W/m2
23:44 67.4 °F /  19.7 °C 58.9 °F /  14.9 °C 29.75in /  1007.3hPa West 0.7mph /  1.1km/h 9mph /  14.5km/h 74% 0.00in /  0mm 0 W/m2
23:49 67.2 °F /  19.6 °C 58.6 °F /  14.8 °C 29.74in /  1007hPa WNW 0.6mph /  1km/h 9mph /  14.5km/h 74% 0.00in /  0mm 0 W/m2
23:54 66.9 °F /  19.4 °C 58.3 °F /  14.6 °C 29.75in /  1007.3hPa West 0.7mph /  1.1km/h 9mph /  14.5km/h 74% 0.00in /  0mm 0 W/m2
23:59 66.6 °F /  19.2 °C 58.4 °F /  14.7 °C 29.74in /  1007hPa WNW 2.2mph /  3.5km/h 9mph /  14.5km/h 74.9% 0.00in /  0mm 0 W/m2
Hartford County Weather
Compliments of Weather Underground - 2 mb